Mckinley Sea — WDE5024 — position and weather

sailwx.info

Track history (hours):
 
Tides and Currents Weather Stations Pressure Air Temp Water Temp Dewpoint Dewpoint Depression Visibility Wind Speed Wind Dir Waves Ship Positions

Mckinley Sea

More information available from US FCC via Universal Licensing System and Coast Guard Vessel Documentation Center.

Last reported at 2014-Sep-21 16:33 UTC. Time now 2014-Sep-21 18:09 UTC.
Position N 40°39' W 074°05'.

Length 46 m; draft 7 m.

Type: Towing. MMSI: 367360980.

Date/timePositionNaut miles runAvg speedWind from/ knotsBaromVisibWave heightAir tempDewpointWater temp
2014-Sep-21 16:33N 40°39' W 074°05'0 0.0
2014-Sep-21 15:33N 40°39' W 074°05'0 0.0
2014-Sep-21 14:11N 40°39' W 074°05'1 0.1
2014-Sep-21 03:18N 40°39' W 074°07'0 0.0
2014-Sep-21 02:32N 40°39' W 074°07'0 0.1
2014-Sep-21 01:30N 40°39' W 074°07'0 0.0
2014-Sep-21 00:26N 40°39' W 074°07'0 0.0
2014-Sep-20 23:31N 40°39' W 074°07'0 0.0
2014-Sep-20 22:31N 40°39' W 074°07'0 0.1
2014-Sep-20 21:33N 40°39' W 074°07'0 0.0
2014-Sep-20 20:33N 40°39' W 074°07'0 0.0
2014-Sep-20 19:33N 40°39' W 074°07'0 0.0
2014-Sep-20 18:33N 40°39' W 074°07'3 2.5
2014-Sep-20 17:32N 40°39' W 074°10'0 0.0
2014-Sep-20 16:32N 40°39' W 074°10'3 2.5
2014-Sep-20 15:31N 40°39' W 074°07'0 0.0
2014-Sep-20 14:32N 40°39' W 074°07'0 0.0
2014-Sep-20 13:29N 40°39' W 074°07'0 0.0
2014-Sep-20 12:33N 40°39' W 074°07'0 0.0
2014-Sep-20 11:32N 40°39' W 074°07'0 0.0
2014-Sep-20 10:23N 40°39' W 074°07'0 0.0
2014-Sep-20 09:22N 40°39' W 074°07'0 0.0
2014-Sep-20 08:30N 40°39' W 074°07'0 0.0
2014-Sep-20 04:19N 40°39' W 074°07'0 0.0
2014-Sep-20 03:27N 40°39' W 074°07'0 0.0
2014-Sep-20 02:21N 40°39' W 074°07'0 0.0
2014-Sep-20 01:23N 40°39' W 074°07'0 0.0
2014-Sep-20 00:30N 40°39' W 074°07'0 0.0
2014-Sep-19 23:31N 40°39' W 074°07'0 0.0
2014-Sep-19 20:19N 40°39' W 074°07'0 0.0
2014-Sep-19 19:26N 40°39' W 074°07'0 0.0
2014-Sep-19 18:31N 40°39' W 074°07'0 0.0
2014-Sep-19 17:32N 40°39' W 074°07'0 0.0
2014-Sep-19 16:31N 40°39' W 074°07'0 0.0
2014-Sep-19 15:29N 40°39' W 074°07'3 3.2
2014-Sep-19 14:33N 40°38' W 074°03'1 0.5
2014-Sep-19 13:30N 40°38' W 074°04'8 6.4
2014-Sep-19 12:17N 40°44' W 073°58'7 8.8
2014-Sep-19 11:29N 40°48' W 073°50'9 8.8
2014-Sep-19 10:31N 40°54' W 073°42'1110.4
2014-Sep-19 09:29N 40°59' W 073°29'1010.3
2014-Sep-19 08:33N 41°01' W 073°17'1010.2
2014-Sep-19 07:33N 41°03' W 073°04'1010.1
2014-Sep-19 06:33N 41°05' W 072°51'10 9.7
2014-Sep-19 05:33N 41°07' W 072°38'9 9.0
2014-Sep-19 04:33N 41°09' W 072°26'8 8.1
2014-Sep-19 03:33N 41°11' W 072°16'8 8.3
2014-Sep-19 02:33N 41°14' W 072°06'9 8.6
2014-Sep-19 01:33N 41°15' W 071°54'10 9.8
2014-Sep-19 00:33N 41°17' W 071°41'10 9.9
2014-Sep-18 23:33N 41°18' W 071°28'1010.0
2014-Sep-18 22:33N 41°27' W 071°23'1010.0
2014-Sep-18 21:30N 41°37' W 071°18'9 9.4
2014-Sep-18 20:33N 41°45' W 071°22'2 1.7
2014-Sep-18 19:33N 41°47' W 071°22'0 0.0
2014-Sep-18 18:33N 41°47' W 071°22'0 0.0
2014-Sep-18 17:33N 41°47' W 071°22'0 0.0
2014-Sep-18 16:33N 41°47' W 071°22'0 0.0
2014-Sep-18 15:33N 41°47' W 071°22'0 0.0
2014-Sep-18 14:33N 41°47' W 071°22'0 0.0
2014-Sep-18 13:33N 41°47' W 071°22'0 0.0
2014-Sep-18 12:33N 41°47' W 071°22'0 0.0
2014-Sep-18 11:33N 41°47' W 071°22'0 0.0
2014-Sep-18 10:33N 41°47' W 071°22'0 0.0
2014-Sep-18 09:33N 41°47' W 071°22'0 0.0
2014-Sep-18 08:33N 41°47' W 071°22'0 0.0
2014-Sep-18 07:33N 41°47' W 071°22'0 0.0
2014-Sep-18 06:33N 41°47' W 071°22'0 0.0
2014-Sep-18 05:33N 41°47' W 071°22'0 0.0
2014-Sep-18 04:33N 41°47' W 071°22'0 0.0
2014-Sep-18 03:33N 41°47' W 071°22'0 0.0
2014-Sep-18 02:33N 41°47' W 071°22'0 0.0
2014-Sep-18 01:33N 41°47' W 071°22'0 0.0
2014-Sep-18 00:33N 41°47' W 071°22'0 0.0
2014-Sep-17 23:33N 41°47' W 071°22'1 1.3
2014-Sep-17 22:33N 41°46' W 071°23'5 4.6
2014-Sep-17 21:33N 41°42' W 071°19'7 6.0
2014-Sep-17 20:19N 41°34' W 071°19'6 7.7
2014-Sep-17 19:32N 41°29' W 071°21'8 8.1
2014-Sep-17 18:33N 41°22' W 071°26'7 6.7
2014-Sep-17 17:33N 41°18' W 071°33'8 7.9
2014-Sep-17 16:33N 41°16' W 071°44'9 8.6
2014-Sep-17 15:33N 41°15' W 071°55'9 9.2
2014-Sep-17 14:33N 41°14' W 072°07'10 9.7
2014-Sep-17 13:33N 41°11' W 072°19'9 9.1
2014-Sep-17 12:33N 41°08' W 072°31'8 8.4
2014-Sep-17 11:33N 41°06' W 072°42'8 7.9
2014-Sep-17 10:33N 41°05' W 072°52'8 7.5
2014-Sep-17 09:32N 41°03' W 073°02'7 7.3
2014-Sep-17 08:33N 41°02' W 073°11'7 7.3
2014-Sep-17 07:33N 41°01' W 073°21'7 7.3
2014-Sep-17 06:33N 40°58' W 073°30'16 7.7
2014-Sep-17 04:32N 40°50' W 073°47'12 5.7
2014-Sep-17 02:26N 40°42' W 073°59'6 5.3
2014-Sep-17 01:12N 40°39' W 074°07'0 0.0
2014-Sep-17 00:25N 40°39' W 074°07'0 0.0
2014-Sep-16 23:33N 40°39' W 074°07'0 0.0
2014-Sep-16 22:33N 40°39' W 074°07'0 0.0
2014-Sep-16 21:29N 40°39' W 074°07'0 0.0
2014-Sep-16 20:30N 40°39' W 074°07'3 2.7
2014-Sep-16 19:32N 40°39' W 074°10'0 0.0
2014-Sep-16 18:33N 40°39' W 074°10'0 0.0
2014-Sep-16 17:29N 40°39' W 074°10'0 0.0
2014-Sep-16 16:29N 40°39' W 074°10'3 1.9
2014-Sep-16 15:07N 40°39' W 074°07'0 0.0
2014-Sep-16 14:28N 40°39' W 074°07'0 0.0
2014-Sep-16 13:10N 40°39' W 074°07'0 0.0
2014-Sep-16 12:33N 40°39' W 074°07'0 0.0
2014-Sep-16 11:33N 40°39' W 074°07'0 0.0
2014-Sep-16 10:33N 40°39' W 074°07'0 0.0
2014-Sep-16 09:33N 40°39' W 074°07'0 0.0
2014-Sep-16 08:33N 40°39' W 074°07'0 0.0
2014-Sep-16 07:33N 40°39' W 074°07'0 0.0
2014-Sep-16 06:33N 40°39' W 074°07'0 0.0
2014-Sep-16 05:33N 40°39' W 074°07'0 0.0
2014-Sep-16 04:33N 40°39' W 074°07'0 0.0
2014-Sep-16 03:33N 40°39' W 074°07'0 0.0
2014-Sep-16 02:33N 40°39' W 074°07'0 0.0
2014-Sep-16 01:33N 40°39' W 074°07'0 0.0
2014-Sep-16 00:33N 40°39' W 074°07'0 0.0
2014-Sep-15 23:33N 40°39' W 074°07'0 0.0
2014-Sep-15 22:32N 40°39' W 074°07'0 0.0
2014-Sep-15 21:33N 40°39' W 074°07'0 0.0
2014-Sep-15 20:26N 40°39' W 074°07'0 0.0
2014-Sep-15 19:33N 40°39' W 074°07'0 0.0
2014-Sep-15 18:33N 40°39' W 074°07'0 0.2
2014-Sep-15 17:27N 40°39' W 074°06'3 2.5
2014-Sep-15 16:19N 40°39' W 074°03'0 0.2
2014-Sep-15 15:33N 40°39' W 074°03'0 0.0
2014-Sep-15 14:33N 40°39' W 074°03'0 0.0
2014-Sep-15 13:33N 40°39' W 074°03'0 0.0
2014-Sep-15 12:33N 40°39' W 074°03'0 0.0
2014-Sep-15 11:33N 40°39' W 074°03'0 0.0
2014-Sep-15 10:33N 40°39' W 074°03'0 0.0
2014-Sep-15 09:33N 40°39' W 074°03'0 0.0
2014-Sep-15 08:33N 40°39' W 074°03'0 0.1
2014-Sep-15 07:33N 40°39' W 074°03'0 0.1
2014-Sep-15 06:33N 40°39' W 074°02'0 0.0
2014-Sep-15 04:33N 40°39' W 074°02'0 0.0
2014-Sep-15 03:33N 40°39' W 074°02'0 0.0
2014-Sep-15 02:33N 40°39' W 074°02'0 0.0
2014-Sep-15 01:32N 40°39' W 074°02'0 0.1
2014-Sep-15 00:33N 40°39' W 074°03'0 0.0
2014-Sep-14 23:32N 40°39' W 074°03'0 0.0
2014-Sep-14 22:30N 40°39' W 074°03'0 0.1
2014-Sep-14 21:33N 40°39' W 074°03'0 0.0
2014-Sep-14 20:30N 40°39' W 074°03'0 0.0
2014-Sep-14 15:33N 40°39' W 074°02'0 0.1
2014-Sep-14 14:33N 40°39' W 074°02'0 0.1
2014-Sep-14 13:33N 40°39' W 074°03'0 0.0
2014-Sep-14 12:30N 40°39' W 074°03'0 0.0
2014-Sep-14 11:33N 40°39' W 074°03'0 0.0
2014-Sep-14 10:31N 40°39' W 074°03'0 0.0
2014-Sep-14 09:33N 40°39' W 074°03'0 0.0
2014-Sep-14 08:33N 40°39' W 074°03'0 0.0
2014-Sep-14 07:33N 40°39' W 074°03'0 0.0
2014-Sep-14 06:33N 40°39' W 074°02'0 0.0
2014-Sep-14 05:33N 40°39' W 074°02'0 0.0
2014-Sep-14 04:22N 40°39' W 074°02'0 0.0
2014-Sep-14 03:33N 40°39' W 074°02'0 0.0
2014-Sep-14 02:33N 40°39' W 074°02'0 0.1
2014-Sep-14 01:33N 40°39' W 074°03'0 0.0
2014-Sep-13 21:17N 40°39' W 074°03'0 0.0
2014-Sep-13 20:08N 40°39' W 074°03'0 0.1
2014-Sep-13 18:32N 40°39' W 074°03'4 0.7
2014-Sep-13 13:24N 40°42' W 073°60'6 6.5
2014-Sep-13 12:33N 40°47' W 073°55'8 7.6
2014-Sep-13 11:33N 40°50' W 073°46'9 9.3
2014-Sep-13 10:33N 40°56' W 073°37'9 9.3
2014-Sep-13 09:33N 40°60' W 073°26'9 9.4
2014-Sep-13 08:33N 41°01' W 073°13'10 9.9
2014-Sep-13 07:33N 41°03' W 073°00'1010.3
2014-Sep-13 06:33N 41°05' W 072°47'1110.5
2014-Sep-13 05:33N 41°08' W 072°34'1211.8
2014-Sep-13 04:33N 41°11' W 072°19'1211.8
2014-Sep-13 03:33N 41°14' W 072°03'1111.1
2014-Sep-13 02:33N 41°16' W 071°49'1010.2
2014-Sep-13 01:33N 41°18' W 071°35'8 8.5
2014-Sep-13 00:33N 41°22' W 071°26'9 9.3
2014-Sep-12 23:33N 41°31' W 071°21'9 9.5
2014-Sep-12 22:33N 41°40' W 071°19'7 3.2
2014-Sep-12 20:13N 41°47' W 071°22'0 0.0
2014-Sep-12 19:33N 41°47' W 071°22'0 0.0
2014-Sep-12 16:18N 41°47' W 071°22'0 0.0
2014-Sep-12 15:33N 41°47' W 071°22'0 0.0
2014-Sep-12 14:33N 41°47' W 071°22'0 0.0
2014-Sep-12 13:33N 41°47' W 071°22'0 0.0
2014-Sep-12 12:33N 41°47' W 071°22'0 0.0
2014-Sep-12 11:33N 41°47' W 071°22'0 0.0
2014-Sep-12 10:33N 41°47' W 071°22'0 0.0
2014-Sep-12 09:33N 41°47' W 071°22'0 0.0
2014-Sep-12 08:33N 41°47' W 071°22'0 0.0
2014-Sep-12 07:33N 41°47' W 071°22'0 0.0
2014-Sep-12 06:33N 41°47' W 071°22'0 0.0
2014-Sep-12 05:24N 41°47' W 071°22'0 0.0
2014-Sep-12 04:33N 41°47' W 071°22'0 0.0
2014-Sep-12 03:33N 41°47' W 071°22'0 0.0
2014-Sep-12 02:33N 41°47' W 071°22'0 0.0
2014-Sep-12 01:33N 41°47' W 071°22'0 0.0
2014-Sep-12 00:33N 41°47' W 071°22'3 2.8
2014-Sep-11 23:33N 41°44' W 071°22'7 7.4
2014-Sep-11 22:33N 41°37' W 071°18'8 7.8
2014-Sep-11 21:33N 41°30' W 071°21'7 7.5
2014-Sep-11 20:34N 41°23' W 071°25'7 7.3
2014-Sep-11 19:34N 41°18' W 071°31'8 8.4
2014-Sep-11 18:34N 41°17' W 071°43'8 7.9
2014-Sep-11 17:34N 41°15' W 071°53'7 6.7
2014-Sep-11 16:34N 41°14' W 072°02'  
Track history (hours):
 
Tides and Currents Weather Stations Pressure Air Temp Water Temp Dewpoint Dewpoint Depression Visibility Wind Speed Wind Dir Waves Ship Positions

Mckinley Sea

More information available from US FCC via Universal Licensing System and Coast Guard Vessel Documentation Center.

Last reported at 2014-Sep-21 16:33 UTC. Time now 2014-Sep-21 18:09 UTC.
Position N 40°39' W 074°05'.

Length 46 m; draft 7 m.

Type: Towing. MMSI: 367360980.

Date/timePositionNaut miles runAvg speedWind from/ knotsBaromVisibWave heightAir tempDewpointWater temp
2014-Sep-21 16:33N 40°39' W 074°05'0 0.0
2014-Sep-21 15:33N 40°39' W 074°05'0 0.0
2014-Sep-21 14:11N 40°39' W 074°05'1 0.1
2014-Sep-21 03:18N 40°39' W 074°07'0 0.0
2014-Sep-21 02:32N 40°39' W 074°07'0 0.1
2014-Sep-21 01:30N 40°39' W 074°07'0 0.0
2014-Sep-21 00:26N 40°39' W 074°07'0 0.0
2014-Sep-20 23:31N 40°39' W 074°07'0 0.0
2014-Sep-20 22:31N 40°39' W 074°07'0 0.1
2014-Sep-20 21:33N 40°39' W 074°07'0 0.0
2014-Sep-20 20:33N 40°39' W 074°07'0 0.0
2014-Sep-20 19:33N 40°39' W 074°07'0 0.0
2014-Sep-20 18:33N 40°39' W 074°07'3 2.5
2014-Sep-20 17:32N 40°39' W 074°10'0 0.0
2014-Sep-20 16:32N 40°39' W 074°10'3 2.5
2014-Sep-20 15:31N 40°39' W 074°07'0 0.0
2014-Sep-20 14:32N 40°39' W 074°07'0 0.0
2014-Sep-20 13:29N 40°39' W 074°07'0 0.0
2014-Sep-20 12:33N 40°39' W 074°07'0 0.0
2014-Sep-20 11:32N 40°39' W 074°07'0 0.0
2014-Sep-20 10:23N 40°39' W 074°07'0 0.0
2014-Sep-20 09:22N 40°39' W 074°07'0 0.0
2014-Sep-20 08:30N 40°39' W 074°07'0 0.0
2014-Sep-20 04:19N 40°39' W 074°07'0 0.0
2014-Sep-20 03:27N 40°39' W 074°07'0 0.0
2014-Sep-20 02:21N 40°39' W 074°07'0 0.0
2014-Sep-20 01:23N 40°39' W 074°07'0 0.0
2014-Sep-20 00:30N 40°39' W 074°07'0 0.0
2014-Sep-19 23:31N 40°39' W 074°07'0 0.0
2014-Sep-19 20:19N 40°39' W 074°07'0 0.0
2014-Sep-19 19:26N 40°39' W 074°07'0 0.0
2014-Sep-19 18:31N 40°39' W 074°07'0 0.0
2014-Sep-19 17:32N 40°39' W 074°07'0 0.0
2014-Sep-19 16:31N 40°39' W 074°07'0 0.0
2014-Sep-19 15:29N 40°39' W 074°07'3 3.2
2014-Sep-19 14:33N 40°38' W 074°03'1 0.5
2014-Sep-19 13:30N 40°38' W 074°04'8 6.4
2014-Sep-19 12:17N 40°44' W 073°58'7 8.8
2014-Sep-19 11:29N 40°48' W 073°50'9 8.8
2014-Sep-19 10:31N 40°54' W 073°42'1110.4
2014-Sep-19 09:29N 40°59' W 073°29'1010.3
2014-Sep-19 08:33N 41°01' W 073°17'1010.2
2014-Sep-19 07:33N 41°03' W 073°04'1010.1
2014-Sep-19 06:33N 41°05' W 072°51'10 9.7
2014-Sep-19 05:33N 41°07' W 072°38'9 9.0
2014-Sep-19 04:33N 41°09' W 072°26'8 8.1
2014-Sep-19 03:33N 41°11' W 072°16'8 8.3
2014-Sep-19 02:33N 41°14' W 072°06'9 8.6
2014-Sep-19 01:33N 41°15' W 071°54'10 9.8
2014-Sep-19 00:33N 41°17' W 071°41'10 9.9
2014-Sep-18 23:33N 41°18' W 071°28'1010.0
2014-Sep-18 22:33N 41°27' W 071°23'1010.0
2014-Sep-18 21:30N 41°37' W 071°18'9 9.4
2014-Sep-18 20:33N 41°45' W 071°22'2 1.7
2014-Sep-18 19:33N 41°47' W 071°22'0 0.0
2014-Sep-18 18:33N 41°47' W 071°22'0 0.0
2014-Sep-18 17:33N 41°47' W 071°22'0 0.0
2014-Sep-18 16:33N 41°47' W 071°22'0 0.0
2014-Sep-18 15:33N 41°47' W 071°22'0 0.0
2014-Sep-18 14:33N 41°47' W 071°22'0 0.0
2014-Sep-18 13:33N 41°47' W 071°22'0 0.0
2014-Sep-18 12:33N 41°47' W 071°22'0 0.0
2014-Sep-18 11:33N 41°47' W 071°22'0 0.0
2014-Sep-18 10:33N 41°47' W 071°22'0 0.0
2014-Sep-18 09:33N 41°47' W 071°22'0 0.0
2014-Sep-18 08:33N 41°47' W 071°22'0 0.0
2014-Sep-18 07:33N 41°47' W 071°22'0 0.0
2014-Sep-18 06:33N 41°47' W 071°22'0 0.0
2014-Sep-18 05:33N 41°47' W 071°22'0 0.0
2014-Sep-18 04:33N 41°47' W 071°22'0 0.0
2014-Sep-18 03:33N 41°47' W 071°22'0 0.0
2014-Sep-18 02:33N 41°47' W 071°22'0 0.0
2014-Sep-18 01:33N 41°47' W 071°22'0 0.0
2014-Sep-18 00:33N 41°47' W 071°22'0 0.0
2014-Sep-17 23:33N 41°47' W 071°22'1 1.3
2014-Sep-17 22:33N 41°46' W 071°23'5 4.6
2014-Sep-17 21:33N 41°42' W 071°19'7 6.0
2014-Sep-17 20:19N 41°34' W 071°19'6 7.7
2014-Sep-17 19:32N 41°29' W 071°21'8 8.1
2014-Sep-17 18:33N 41°22' W 071°26'7 6.7
2014-Sep-17 17:33N 41°18' W 071°33'8 7.9
2014-Sep-17 16:33N 41°16' W 071°44'9 8.6
2014-Sep-17 15:33N 41°15' W 071°55'9 9.2
2014-Sep-17 14:33N 41°14' W 072°07'10 9.7
2014-Sep-17 13:33N 41°11' W 072°19'9 9.1
2014-Sep-17 12:33N 41°08' W 072°31'8 8.4
2014-Sep-17 11:33N 41°06' W 072°42'8 7.9
2014-Sep-17 10:33N 41°05' W 072°52'8 7.5
2014-Sep-17 09:32N 41°03' W 073°02'7 7.3
2014-Sep-17 08:33N 41°02' W 073°11'7 7.3
2014-Sep-17 07:33N 41°01' W 073°21'7 7.3
2014-Sep-17 06:33N 40°58' W 073°30'16 7.7
2014-Sep-17 04:32N 40°50' W 073°47'12 5.7
2014-Sep-17 02:26N 40°42' W 073°59'6 5.3
2014-Sep-17 01:12N 40°39' W 074°07'0 0.0
2014-Sep-17 00:25N 40°39' W 074°07'0 0.0
2014-Sep-16 23:33N 40°39' W 074°07'0 0.0
2014-Sep-16 22:33N 40°39' W 074°07'0 0.0
2014-Sep-16 21:29N 40°39' W 074°07'0 0.0
2014-Sep-16 20:30N 40°39' W 074°07'3 2.7
2014-Sep-16 19:32N 40°39' W 074°10'0 0.0
2014-Sep-16 18:33N 40°39' W 074°10'0 0.0
2014-Sep-16 17:29N 40°39' W 074°10'0 0.0
2014-Sep-16 16:29N 40°39' W 074°10'3 1.9
2014-Sep-16 15:07N 40°39' W 074°07'0 0.0
2014-Sep-16 14:28N 40°39' W 074°07'0 0.0
2014-Sep-16 13:10N 40°39' W 074°07'0 0.0
2014-Sep-16 12:33N 40°39' W 074°07'0 0.0
2014-Sep-16 11:33N 40°39' W 074°07'0 0.0
2014-Sep-16 10:33N 40°39' W 074°07'0 0.0
2014-Sep-16 09:33N 40°39' W 074°07'0 0.0
2014-Sep-16 08:33N 40°39' W 074°07'0 0.0
2014-Sep-16 07:33N 40°39' W 074°07'0 0.0
2014-Sep-16 06:33N 40°39' W 074°07'0 0.0
2014-Sep-16 05:33N 40°39' W 074°07'0 0.0
2014-Sep-16 04:33N 40°39' W 074°07'0 0.0
2014-Sep-16 03:33N 40°39' W 074°07'0 0.0
2014-Sep-16 02:33N 40°39' W 074°07'0 0.0
2014-Sep-16 01:33N 40°39' W 074°07'0 0.0
2014-Sep-16 00:33N 40°39' W 074°07'0 0.0
2014-Sep-15 23:33N 40°39' W 074°07'0 0.0
2014-Sep-15 22:32N 40°39' W 074°07'0 0.0
2014-Sep-15 21:33N 40°39' W 074°07'0 0.0
2014-Sep-15 20:26N 40°39' W 074°07'0 0.0
2014-Sep-15 19:33N 40°39' W 074°07'0 0.0
2014-Sep-15 18:33N 40°39' W 074°07'0 0.2
2014-Sep-15 17:27N 40°39' W 074°06'3 2.5
2014-Sep-15 16:19N 40°39' W 074°03'0 0.2
2014-Sep-15 15:33N 40°39' W 074°03'0 0.0
2014-Sep-15 14:33N 40°39' W 074°03'0 0.0
2014-Sep-15 13:33N 40°39' W 074°03'0 0.0
2014-Sep-15 12:33N 40°39' W 074°03'0 0.0
2014-Sep-15 11:33N 40°39' W 074°03'0 0.0
2014-Sep-15 10:33N 40°39' W 074°03'0 0.0
2014-Sep-15 09:33N 40°39' W 074°03'0 0.0
2014-Sep-15 08:33N 40°39' W 074°03'0 0.1
2014-Sep-15 07:33N 40°39' W 074°03'0 0.1
2014-Sep-15 06:33N 40°39' W 074°02'0 0.0
2014-Sep-15 04:33N 40°39' W 074°02'0 0.0
2014-Sep-15 03:33N 40°39' W 074°02'0 0.0
2014-Sep-15 02:33N 40°39' W 074°02'0 0.0
2014-Sep-15 01:32N 40°39' W 074°02'0 0.1
2014-Sep-15 00:33N 40°39' W 074°03'0 0.0
2014-Sep-14 23:32N 40°39' W 074°03'0 0.0
2014-Sep-14 22:30N 40°39' W 074°03'0 0.1
2014-Sep-14 21:33N 40°39' W 074°03'0 0.0
2014-Sep-14 20:30N 40°39' W 074°03'0 0.0
2014-Sep-14 15:33N 40°39' W 074°02'0 0.1
2014-Sep-14 14:33N 40°39' W 074°02'0 0.1
2014-Sep-14 13:33N 40°39' W 074°03'0 0.0
2014-Sep-14 12:30N 40°39' W 074°03'0 0.0
2014-Sep-14 11:33N 40°39' W 074°03'0 0.0
2014-Sep-14 10:31N 40°39' W 074°03'0 0.0
2014-Sep-14 09:33N 40°39' W 074°03'0 0.0
2014-Sep-14 08:33N 40°39' W 074°03'0 0.0
2014-Sep-14 07:33N 40°39' W 074°03'0 0.0
2014-Sep-14 06:33N 40°39' W 074°02'0 0.0
2014-Sep-14 05:33N 40°39' W 074°02'0 0.0
2014-Sep-14 04:22N 40°39' W 074°02'0 0.0
2014-Sep-14 03:33N 40°39' W 074°02'0 0.0
2014-Sep-14 02:33N 40°39' W 074°02'0 0.1
2014-Sep-14 01:33N 40°39' W 074°03'0 0.0
2014-Sep-13 21:17N 40°39' W 074°03'0 0.0
2014-Sep-13 20:08N 40°39' W 074°03'0 0.1
2014-Sep-13 18:32N 40°39' W 074°03'4 0.7
2014-Sep-13 13:24N 40°42' W 073°60'6 6.5
2014-Sep-13 12:33N 40°47' W 073°55'8 7.6
2014-Sep-13 11:33N 40°50' W 073°46'9 9.3
2014-Sep-13 10:33N 40°56' W 073°37'9 9.3
2014-Sep-13 09:33N 40°60' W 073°26'9 9.4
2014-Sep-13 08:33N 41°01' W 073°13'10 9.9
2014-Sep-13 07:33N 41°03' W 073°00'1010.3
2014-Sep-13 06:33N 41°05' W 072°47'1110.5
2014-Sep-13 05:33N 41°08' W 072°34'1211.8
2014-Sep-13 04:33N 41°11' W 072°19'1211.8
2014-Sep-13 03:33N 41°14' W 072°03'1111.1
2014-Sep-13 02:33N 41°16' W 071°49'1010.2
2014-Sep-13 01:33N 41°18' W 071°35'8 8.5
2014-Sep-13 00:33N 41°22' W 071°26'9 9.3
2014-Sep-12 23:33N 41°31' W 071°21'9 9.5
2014-Sep-12 22:33N 41°40' W 071°19'7 3.2
2014-Sep-12 20:13N 41°47' W 071°22'0 0.0
2014-Sep-12 19:33N 41°47' W 071°22'0 0.0
2014-Sep-12 16:18N 41°47' W 071°22'0 0.0
2014-Sep-12 15:33N 41°47' W 071°22'0 0.0
2014-Sep-12 14:33N 41°47' W 071°22'0 0.0
2014-Sep-12 13:33N 41°47' W 071°22'0 0.0
2014-Sep-12 12:33N 41°47' W 071°22'0 0.0
2014-Sep-12 11:33N 41°47' W 071°22'0 0.0
2014-Sep-12 10:33N 41°47' W 071°22'0 0.0
2014-Sep-12 09:33N 41°47' W 071°22'0 0.0
2014-Sep-12 08:33N 41°47' W 071°22'0 0.0
2014-Sep-12 07:33N 41°47' W 071°22'0 0.0
2014-Sep-12 06:33N 41°47' W 071°22'0 0.0
2014-Sep-12 05:24N 41°47' W 071°22'0 0.0
2014-Sep-12 04:33N 41°47' W 071°22'0 0.0
2014-Sep-12 03:33N 41°47' W 071°22'0 0.0
2014-Sep-12 02:33N 41°47' W 071°22'0 0.0
2014-Sep-12 01:33N 41°47' W 071°22'0 0.0
2014-Sep-12 00:33N 41°47' W 071°22'3 2.8
2014-Sep-11 23:33N 41°44' W 071°22'7 7.4
2014-Sep-11 22:33N 41°37' W 071°18'8 7.8
2014-Sep-11 21:33N 41°30' W 071°21'7 7.5
2014-Sep-11 20:34N 41°23' W 071°25'7 7.3
2014-Sep-11 19:34N 41°18' W 071°31'8 8.4
2014-Sep-11 18:34N 41°17' W 071°43'8 7.9
2014-Sep-11 17:34N 41°15' W 071°53'7 6.7
2014-Sep-11 16:34N 41°14' W 072°02'  

Dump ship's entire track history